sensor_id;sensor_type;location;lat;lon;timestamp;temperature;humidity
38582;DHT22;24349;53.720;10.014;2022-09-09T00:04:15;14.90;99.90
38582;DHT22;24349;53.720;10.014;2022-09-09T00:09:49;14.80;99.90
38582;DHT22;24349;53.720;10.014;2022-09-09T00:12:39;14.80;99.90
38582;DHT22;24349;53.720;10.014;2022-09-09T00:15:14;14.80;99.90
38582;DHT22;24349;53.720;10.014;2022-09-09T00:17:56;14.80;99.90
38582;DHT22;24349;53.720;10.014;2022-09-09T00:20:40;14.80;99.90
38582;DHT22;24349;53.720;10.014;2022-09-09T00:28:25;14.70;99.90
38582;DHT22;24349;53.720;10.014;2022-09-09T00:30:53;14.80;99.90
38582;DHT22;24349;53.720;10.014;2022-09-09T00:33:23;14.90;99.90
38582;DHT22;24349;53.720;10.014;2022-09-09T00:35:51;14.80;99.90
38582;DHT22;24349;53.720;10.014;2022-09-09T00:38:25;14.80;99.90
38582;DHT22;24349;53.720;10.014;2022-09-09T00:43:41;14.80;99.90
38582;DHT22;24349;53.720;10.014;2022-09-09T00:46:14;14.90;99.90
38582;DHT22;24349;53.720;10.014;2022-09-09T00:49:07;14.80;99.90
38582;DHT22;24349;53.720;10.014;2022-09-09T00:57:32;14.90;99.90
38582;DHT22;24349;53.720;10.014;2022-09-09T01:08:09;14.90;99.90
38582;DHT22;24349;53.720;10.014;2022-09-09T01:10:49;14.90;99.90
38582;DHT22;24349;53.720;10.014;2022-09-09T01:13:27;14.90;99.90
38582;DHT22;24349;53.720;10.014;2022-09-09T01:15:57;14.90;99.90
38582;DHT22;24349;53.720;10.014;2022-09-09T01:18:29;14.90;99.90
38582;DHT22;24349;53.720;10.014;2022-09-09T01:21:27;14.80;99.90
38582;DHT22;24349;53.720;10.014;2022-09-09T01:26:43;14.90;99.90
38582;DHT22;24349;53.720;10.014;2022-09-09T01:29:14;14.80;99.90
38582;DHT22;24349;53.720;10.014;2022-09-09T01:34:14;14.90;99.90
38582;DHT22;24349;53.720;10.014;2022-09-09T01:36:46;14.90;99.90
38582;DHT22;24349;53.720;10.014;2022-09-09T01:39:16;14.90;99.90
38582;DHT22;24349;53.720;10.014;2022-09-09T01:41:42;14.90;99.90
38582;DHT22;24349;53.720;10.014;2022-09-09T01:44:08;14.90;99.90
38582;DHT22;24349;53.720;10.014;2022-09-09T01:46:34;14.80;99.90
38582;DHT22;24349;53.720;10.014;2022-09-09T01:49:02;14.80;99.90
38582;DHT22;24349;53.720;10.014;2022-09-09T01:51:29;14.80;99.90
38582;DHT22;24349;53.720;10.014;2022-09-09T01:53:55;14.90;99.90
38582;DHT22;24349;53.720;10.014;2022-09-09T02:02:07;14.90;99.90
38582;DHT22;24349;53.720;10.014;2022-09-09T02:09:41;14.90;99.90
38582;DHT22;24349;53.720;10.014;2022-09-09T02:12:14;15.00;99.90
38582;DHT22;24349;53.720;10.014;2022-09-09T02:14:53;15.10;99.90
38582;DHT22;24349;53.720;10.014;2022-09-09T02:17:26;15.00;99.90
38582;DHT22;24349;53.720;10.014;2022-09-09T02:20:04;14.90;99.90
38582;DHT22;24349;53.720;10.014;2022-09-09T02:22:33;14.90;99.90
38582;DHT22;24349;53.720;10.014;2022-09-09T02:25:00;14.90;99.90
38582;DHT22;24349;53.720;10.014;2022-09-09T02:27:25;14.80;99.90
38582;DHT22;24349;53.720;10.014;2022-09-09T02:29:53;14.80;99.90
38582;DHT22;24349;53.720;10.014;2022-09-09T02:32:23;14.90;99.90
38582;DHT22;24349;53.720;10.014;2022-09-09T02:34:55;14.90;99.90
38582;DHT22;24349;53.720;10.014;2022-09-09T02:37:27;14.80;99.90
38582;DHT22;24349;53.720;10.014;2022-09-09T02:39:55;14.80;99.90
38582;DHT22;24349;53.720;10.014;2022-09-09T02:42:21;14.80;99.90
38582;DHT22;24349;53.720;10.014;2022-09-09T02:44:46;14.80;99.90
38582;DHT22;24349;53.720;10.014;2022-09-09T02:50:01;14.70;99.90
38582;DHT22;24349;53.720;10.014;2022-09-09T02:52:50;14.70;99.90
38582;DHT22;24349;53.720;10.014;2022-09-09T02:55:25;14.70;99.90
38582;DHT22;24349;53.720;10.014;2022-09-09T02:57:53;14.70;99.90
38582;DHT22;24349;53.720;10.014;2022-09-09T03:00:26;14.80;99.90
38582;DHT22;24349;53.720;10.014;2022-09-09T03:02:52;14.80;99.90
38582;DHT22;24349;53.720;10.014;2022-09-09T03:05:20;14.70;99.90
38582;DHT22;24349;53.720;10.014;2022-09-09T03:07:46;14.60;99.90
38582;DHT22;24349;53.720;10.014;2022-09-09T03:10:12;14.70;99.90
38582;DHT22;24349;53.720;10.014;2022-09-09T03:12:37;14.70;99.90
38582;DHT22;24349;53.720;10.014;2022-09-09T03:15:04;14.70;99.90
38582;DHT22;24349;53.720;10.014;2022-09-09T03:17:30;14.70;99.90
38582;DHT22;24349;53.720;10.014;2022-09-09T03:19:56;14.60;99.90
38582;DHT22;24349;53.720;10.014;2022-09-09T03:22:23;14.60;99.90
38582;DHT22;24349;53.720;10.014;2022-09-09T03:24:48;14.60;99.90
38582;DHT22;24349;53.720;10.014;2022-09-09T03:27:14;14.60;99.90
38582;DHT22;24349;53.720;10.014;2022-09-09T03:29:40;14.50;99.90
38582;DHT22;24349;53.720;10.014;2022-09-09T03:32:05;14.60;99.90
38582;DHT22;24349;53.720;10.014;2022-09-09T03:34:31;14.50;99.90
38582;DHT22;24349;53.720;10.014;2022-09-09T03:36:57;14.40;99.90
38582;DHT22;24349;53.720;10.014;2022-09-09T03:39:22;14.40;99.90
38582;DHT22;24349;53.720;10.014;2022-09-09T03:41:48;14.50;99.90
38582;DHT22;24349;53.720;10.014;2022-09-09T03:44:14;14.40;99.90
38582;DHT22;24349;53.720;10.014;2022-09-09T03:46:40;14.40;99.90
38582;DHT22;24349;53.720;10.014;2022-09-09T03:49:05;14.30;99.90
38582;DHT22;24349;53.720;10.014;2022-09-09T03:51:31;14.40;99.90
38582;DHT22;24349;53.720;10.014;2022-09-09T03:53:57;14.40;99.90
38582;DHT22;24349;53.720;10.014;2022-09-09T03:56:24;14.50;99.90
38582;DHT22;24349;53.720;10.014;2022-09-09T03:58:49;14.50;99.90
38582;DHT22;24349;53.720;10.014;2022-09-09T04:01:15;14.50;99.90
38582;DHT22;24349;53.720;10.014;2022-09-09T04:03:43;14.50;99.90
38582;DHT22;24349;53.720;10.014;2022-09-09T04:06:11;14.40;99.90
38582;DHT22;24349;53.720;10.014;2022-09-09T04:08:39;14.40;99.90
38582;DHT22;24349;53.720;10.014;2022-09-09T04:11:05;14.40;99.90
38582;DHT22;24349;53.720;10.014;2022-09-09T04:13:32;14.50;99.90
38582;DHT22;24349;53.720;10.014;2022-09-09T04:16:00;14.50;99.90
38582;DHT22;24349;53.720;10.014;2022-09-09T04:18:27;14.50;99.90
38582;DHT22;24349;53.720;10.014;2022-09-09T04:20:53;14.50;99.90
38582;DHT22;24349;53.720;10.014;2022-09-09T04:23:21;14.50;99.90
38582;DHT22;24349;53.720;10.014;2022-09-09T04:25:52;14.40;99.90
38582;DHT22;24349;53.720;10.014;2022-09-09T04:28:19;14.40;99.90
38582;DHT22;24349;53.720;10.014;2022-09-09T04:30:46;14.30;99.90
38582;DHT22;24349;53.720;10.014;2022-09-09T04:33:12;14.30;99.90
38582;DHT22;24349;53.720;10.014;2022-09-09T04:35:39;14.40;99.90
38582;DHT22;24349;53.720;10.014;2022-09-09T04:38:05;14.30;99.90
38582;DHT22;24349;53.720;10.014;2022-09-09T04:40:34;14.30;99.90
38582;DHT22;24349;53.720;10.014;2022-09-09T04:43:02;14.30;99.90
38582;DHT22;24349;53.720;10.014;2022-09-09T04:45:30;14.30;99.90
38582;DHT22;24349;53.720;10.014;2022-09-09T04:47:56;14.30;99.90
38582;DHT22;24349;53.720;10.014;2022-09-09T04:50:22;14.30;99.90
38582;DHT22;24349;53.720;10.014;2022-09-09T04:52:48;14.30;99.90
38582;DHT22;24349;53.720;10.014;2022-09-09T04:55:14;14.30;99.90
38582;DHT22;24349;53.720;10.014;2022-09-09T04:57:40;14.30;99.90
38582;DHT22;24349;53.720;10.014;2022-09-09T05:00:06;14.30;99.90
38582;DHT22;24349;53.720;10.014;2022-09-09T05:02:32;14.30;99.90
38582;DHT22;24349;53.720;10.014;2022-09-09T05:04:58;14.30;99.90
38582;DHT22;24349;53.720;10.014;2022-09-09T05:07:24;14.30;99.90
38582;DHT22;24349;53.720;10.014;2022-09-09T05:09:51;14.30;99.90
38582;DHT22;24349;53.720;10.014;2022-09-09T05:12:17;14.30;99.90
38582;DHT22;24349;53.720;10.014;2022-09-09T05:14:43;14.30;99.90
38582;DHT22;24349;53.720;10.014;2022-09-09T05:17:09;14.20;99.90
38582;DHT22;24349;53.720;10.014;2022-09-09T05:19:35;14.30;99.90
38582;DHT22;24349;53.720;10.014;2022-09-09T05:22:01;14.30;99.90
38582;DHT22;24349;53.720;10.014;2022-09-09T05:24:27;14.30;99.90
38582;DHT22;24349;53.720;10.014;2022-09-09T05:26:53;14.30;99.90
38582;DHT22;24349;53.720;10.014;2022-09-09T05:29:19;14.20;99.90
38582;DHT22;24349;53.720;10.014;2022-09-09T05:31:45;14.20;99.90
38582;DHT22;24349;53.720;10.014;2022-09-09T05:34:11;14.30;99.90
38582;DHT22;24349;53.720;10.014;2022-09-09T05:36:37;14.30;99.90
38582;DHT22;24349;53.720;10.014;2022-09-09T05:39:03;14.20;99.90
38582;DHT22;24349;53.720;10.014;2022-09-09T05:41:29;14.20;99.90
38582;DHT22;24349;53.720;10.014;2022-09-09T05:43:55;14.20;99.90
38582;DHT22;24349;53.720;10.014;2022-09-09T05:46:22;14.30;99.90
38582;DHT22;24349;53.720;10.014;2022-09-09T05:48:49;14.30;99.90
38582;DHT22;24349;53.720;10.014;2022-09-09T05:51:25;14.40;99.90
38582;DHT22;24349;53.720;10.014;2022-09-09T05:53:52;14.40;99.90
38582;DHT22;24349;53.720;10.014;2022-09-09T05:56:23;14.40;99.90
38582;DHT22;24349;53.720;10.014;2022-09-09T05:58:51;14.30;99.90
38582;DHT22;24349;53.720;10.014;2022-09-09T06:01:30;14.30;99.90
38582;DHT22;24349;53.720;10.014;2022-09-09T06:03:56;14.30;99.90
38582;DHT22;24349;53.720;10.014;2022-09-09T06:06:25;14.30;99.90
38582;DHT22;24349;53.720;10.014;2022-09-09T06:08:53;14.40;99.90
38582;DHT22;24349;53.720;10.014;2022-09-09T06:11:21;14.40;99.90
38582;DHT22;24349;53.720;10.014;2022-09-09T06:13:48;14.40;99.90
38582;DHT22;24349;53.720;10.014;2022-09-09T06:16:18;14.30;99.90
38582;DHT22;24349;53.720;10.014;2022-09-09T06:18:44;14.40;99.90
38582;DHT22;24349;53.720;10.014;2022-09-09T06:21:28;14.50;99.90
38582;DHT22;24349;53.720;10.014;2022-09-09T06:23:54;14.50;99.90
38582;DHT22;24349;53.720;10.014;2022-09-09T06:26:25;14.50;99.90
38582;DHT22;24349;53.720;10.014;2022-09-09T06:28:52;14.60;99.90
38582;DHT22;24349;53.720;10.014;2022-09-09T06:31:24;14.60;99.90
38582;DHT22;24349;53.720;10.014;2022-09-09T06:33:51;14.70;99.90
38582;DHT22;24349;53.720;10.014;2022-09-09T06:36:32;14.80;99.90
38582;DHT22;24349;53.720;10.014;2022-09-09T06:39:00;14.70;99.90
38582;DHT22;24349;53.720;10.014;2022-09-09T06:41:28;14.70;99.90
38582;DHT22;24349;53.720;10.014;2022-09-09T06:43:54;14.70;99.90
38582;DHT22;24349;53.720;10.014;2022-09-09T06:46:26;14.70;99.90
38582;DHT22;24349;53.720;10.014;2022-09-09T06:48:56;14.70;99.90
38582;DHT22;24349;53.720;10.014;2022-09-09T06:51:28;14.80;99.90
38582;DHT22;24349;53.720;10.014;2022-09-09T06:53:56;14.80;99.90
38582;DHT22;24349;53.720;10.014;2022-09-09T06:58:55;14.90;99.90
38582;DHT22;24349;53.720;10.014;2022-09-09T07:01:22;15.00;99.90
38582;DHT22;24349;53.720;10.014;2022-09-09T07:03:54;15.00;99.90
38582;DHT22;24349;53.720;10.014;2022-09-09T07:06:28;15.20;99.90
38582;DHT22;24349;53.720;10.014;2022-09-09T07:08:56;15.60;99.90
38582;DHT22;24349;53.720;10.014;2022-09-09T07:11:26;16.00;99.90
38582;DHT22;24349;53.720;10.014;2022-09-09T07:13:55;16.60;99.90
38582;DHT22;24349;53.720;10.014;2022-09-09T07:16:22;16.80;99.90
38582;DHT22;24349;53.720;10.014;2022-09-09T07:18:54;17.70;99.90
38582;DHT22;24349;53.720;10.014;2022-09-09T07:21:28;18.00;99.90
38582;DHT22;24349;53.720;10.014;2022-09-09T07:23:54;18.10;99.90
38582;DHT22;24349;53.720;10.014;2022-09-09T07:26:22;17.80;99.90
38582;DHT22;24349;53.720;10.014;2022-09-09T07:28:49;17.60;99.90
38582;DHT22;24349;53.720;10.014;2022-09-09T07:31:20;17.40;99.90
38582;DHT22;24349;53.720;10.014;2022-09-09T07:33:46;17.40;99.90
38582;DHT22;24349;53.720;10.014;2022-09-09T07:36:15;17.50;99.90
38582;DHT22;24349;53.720;10.014;2022-09-09T07:38:51;17.80;99.90
38582;DHT22;24349;53.720;10.014;2022-09-09T07:41:31;17.80;99.90
38582;DHT22;24349;53.720;10.014;2022-09-09T07:44:06;17.80;99.90
38582;DHT22;24349;53.720;10.014;2022-09-09T07:46:32;17.80;99.90
38582;DHT22;24349;53.720;10.014;2022-09-09T07:48:57;17.80;99.90
38582;DHT22;24349;53.720;10.014;2022-09-09T07:51:29;17.80;99.90
38582;DHT22;24349;53.720;10.014;2022-09-09T07:53:58;17.80;99.90
38582;DHT22;24349;53.720;10.014;2022-09-09T07:56:25;17.60;99.90
38582;DHT22;24349;53.720;10.014;2022-09-09T07:58:52;17.30;99.90
38582;DHT22;24349;53.720;10.014;2022-09-09T08:01:27;17.30;99.90
38582;DHT22;24349;53.720;10.014;2022-09-09T08:03:59;17.40;99.90
38582;DHT22;24349;53.720;10.014;2022-09-09T08:06:27;17.40;99.90
38582;DHT22;24349;53.720;10.014;2022-09-09T08:08:54;17.30;99.90
38582;DHT22;24349;53.720;10.014;2022-09-09T08:11:21;17.40;99.90
38582;DHT22;24349;53.720;10.014;2022-09-09T08:13:48;17.40;99.90
38582;DHT22;24349;53.720;10.014;2022-09-09T08:16:16;17.30;99.90
38582;DHT22;24349;53.720;10.014;2022-09-09T08:18:43;17.50;99.90
38582;DHT22;24349;53.720;10.014;2022-09-09T08:21:17;17.40;99.90
38582;DHT22;24349;53.720;10.014;2022-09-09T08:23:44;17.30;99.90
38582;DHT22;24349;53.720;10.014;2022-09-09T08:26:19;17.40;99.90
38582;DHT22;24349;53.720;10.014;2022-09-09T08:28:53;17.40;99.90
38582;DHT22;24349;53.720;10.014;2022-09-09T08:31:24;17.50;99.90
38582;DHT22;24349;53.720;10.014;2022-09-09T08:33:50;17.50;99.90
38582;DHT22;24349;53.720;10.014;2022-09-09T08:36:23;17.80;99.90
38582;DHT22;24349;53.720;10.014;2022-09-09T08:38:53;18.80;99.90
38582;DHT22;24349;53.720;10.014;2022-09-09T08:41:32;19.80;99.90
38582;DHT22;24349;53.720;10.014;2022-09-09T08:46:51;19.10;99.90
38582;DHT22;24349;53.720;10.014;2022-09-09T08:49:39;19.10;99.90
38582;DHT22;24349;53.720;10.014;2022-09-09T08:52:25;19.40;99.90
38582;DHT22;24349;53.720;10.014;2022-09-09T08:54:55;19.30;99.90
38582;DHT22;24349;53.720;10.014;2022-09-09T08:57:25;19.40;99.90
38582;DHT22;24349;53.720;10.014;2022-09-09T08:59:54;19.20;99.90
38582;DHT22;24349;53.720;10.014;2022-09-09T09:11:03;19.60;99.90
38582;DHT22;24349;53.720;10.014;2022-09-09T09:18:52;20.70;99.90
38582;DHT22;24349;53.720;10.014;2022-09-09T09:21:26;21.10;99.90
38582;DHT22;24349;53.720;10.014;2022-09-09T09:23:57;20.90;99.90
38582;DHT22;24349;53.720;10.014;2022-09-09T09:26:49;20.50;99.90
38582;DHT22;24349;53.720;10.014;2022-09-09T09:29:19;20.40;99.90
38582;DHT22;24349;53.720;10.014;2022-09-09T09:31:56;20.50;99.90
38582;DHT22;24349;53.720;10.014;2022-09-09T09:34:27;20.60;99.90
38582;DHT22;24349;53.720;10.014;2022-09-09T09:36:58;20.40;99.90
38582;DHT22;24349;53.720;10.014;2022-09-09T09:39:32;20.30;99.90
38582;DHT22;24349;53.720;10.014;2022-09-09T09:42:13;20.30;99.90
38582;DHT22;24349;53.720;10.014;2022-09-09T09:44:40;20.10;99.90
38582;DHT22;24349;53.720;10.014;2022-09-09T09:47:08;20.10;99.90
38582;DHT22;24349;53.720;10.014;2022-09-09T09:49:34;20.10;99.90
38582;DHT22;24349;53.720;10.014;2022-09-09T09:52:01;19.90;99.90
38582;DHT22;24349;53.720;10.014;2022-09-09T09:54:38;19.60;99.90
38582;DHT22;24349;53.720;10.014;2022-09-09T09:57:11;19.40;99.90
38582;DHT22;24349;53.720;10.014;2022-09-09T09:59:37;19.20;99.90
38582;DHT22;24349;53.720;10.014;2022-09-09T10:02:22;19.20;99.90
38582;DHT22;24349;53.720;10.014;2022-09-09T10:05:25;19.10;99.90
38582;DHT22;24349;53.720;10.014;2022-09-09T10:08:10;19.20;99.90
38582;DHT22;24349;53.720;10.014;2022-09-09T10:35:47;24.50;99.90
38582;DHT22;24349;53.720;10.014;2022-09-09T10:38:17;23.50;99.90
38582;DHT22;24349;53.720;10.014;2022-09-09T10:41:00;23.50;99.90
38582;DHT22;24349;53.720;10.014;2022-09-09T10:51:37;24.00;99.90
38582;DHT22;24349;53.720;10.014;2022-09-09T10:56:35;24.50;99.90
38582;DHT22;24349;53.720;10.014;2022-09-09T10:59:16;23.40;99.90
38582;DHT22;24349;53.720;10.014;2022-09-09T11:04:45;23.90;99.90
38582;DHT22;24349;53.720;10.014;2022-09-09T11:07:38;24.10;99.90
38582;DHT22;24349;53.720;10.014;2022-09-09T11:10:25;24.00;99.90
38582;DHT22;24349;53.720;10.014;2022-09-09T11:12:59;23.20;99.90
38582;DHT22;24349;53.720;10.014;2022-09-09T11:15:41;23.60;99.90
38582;DHT22;24349;53.720;10.014;2022-09-09T11:18:13;24.20;99.90
38582;DHT22;24349;53.720;10.014;2022-09-09T11:20:41;23.90;99.90
38582;DHT22;24349;53.720;10.014;2022-09-09T11:23:18;24.10;99.90
38582;DHT22;24349;53.720;10.014;2022-09-09T11:25:59;23.40;99.90
38582;DHT22;24349;53.720;10.014;2022-09-09T11:42:24;25.00;99.90
38582;DHT22;24349;53.720;10.014;2022-09-09T11:44:50;24.40;99.90
38582;DHT22;24349;53.720;10.014;2022-09-09T11:47:24;23.60;99.90
38582;DHT22;24349;53.720;10.014;2022-09-09T11:50:06;23.10;99.90
38582;DHT22;24349;53.720;10.014;2022-09-09T11:52:40;22.70;99.90
38582;DHT22;24349;53.720;10.014;2022-09-09T11:55:28;23.10;99.90
38582;DHT22;24349;53.720;10.014;2022-09-09T11:58:02;23.90;99.90
38582;DHT22;24349;53.720;10.014;2022-09-09T12:00:36;23.90;99.90
38582;DHT22;24349;53.720;10.014;2022-09-09T12:03:04;24.30;99.90
38582;DHT22;24349;53.720;10.014;2022-09-09T12:05:56;24.80;99.90
38582;DHT22;24349;53.720;10.014;2022-09-09T12:08:27;24.70;99.90
38582;DHT22;24349;53.720;10.014;2022-09-09T12:10:56;24.70;99.90
38582;DHT22;24349;53.720;10.014;2022-09-09T12:13:24;24.20;99.90
38582;DHT22;24349;53.720;10.014;2022-09-09T12:15:55;23.50;99.90
38582;DHT22;24349;53.720;10.014;2022-09-09T12:18:33;24.50;99.90
38582;DHT22;24349;53.720;10.014;2022-09-09T12:23:53;24.10;99.90
38582;DHT22;24349;53.720;10.014;2022-09-09T12:29:05;23.20;99.90
38582;DHT22;24349;53.720;10.014;2022-09-09T12:37:13;22.70;99.90
38582;DHT22;24349;53.720;10.014;2022-09-09T12:40:01;21.90;99.90
38582;DHT22;24349;53.720;10.014;2022-09-09T12:42:28;21.50;99.90
38582;DHT22;24349;53.720;10.014;2022-09-09T12:44:59;21.50;99.90
38582;DHT22;24349;53.720;10.014;2022-09-09T12:47:38;21.70;99.90
38582;DHT22;24349;53.720;10.014;2022-09-09T12:50:16;21.40;99.90
38582;DHT22;24349;53.720;10.014;2022-09-09T12:52:42;21.20;99.90
38582;DHT22;24349;53.720;10.014;2022-09-09T12:55:17;21.00;99.90
38582;DHT22;24349;53.720;10.014;2022-09-09T12:57:44;20.90;99.90
38582;DHT22;24349;53.720;10.014;2022-09-09T13:00:16;21.20;99.90
38582;DHT22;24349;53.720;10.014;2022-09-09T13:02:47;21.40;99.90
38582;DHT22;24349;53.720;10.014;2022-09-09T13:05:16;21.30;99.90
38582;DHT22;24349;53.720;10.014;2022-09-09T13:07:42;21.30;99.90
38582;DHT22;24349;53.720;10.014;2022-09-09T13:10:11;21.40;99.90
38582;DHT22;24349;53.720;10.014;2022-09-09T13:12:38;21.30;99.90
38582;DHT22;24349;53.720;10.014;2022-09-09T13:15:04;21.20;99.90
38582;DHT22;24349;53.720;10.014;2022-09-09T13:17:35;20.80;99.90
38582;DHT22;24349;53.720;10.014;2022-09-09T13:20:01;20.80;99.90
38582;DHT22;24349;53.720;10.014;2022-09-09T13:22:34;20.70;99.90
38582;DHT22;24349;53.720;10.014;2022-09-09T13:25:13;20.60;99.90
38582;DHT22;24349;53.720;10.014;2022-09-09T13:27:58;20.40;99.90
38582;DHT22;24349;53.720;10.014;2022-09-09T13:36:01;19.70;99.90
38582;DHT22;24349;53.720;10.014;2022-09-09T13:38:33;19.60;99.90
38582;DHT22;24349;53.720;10.014;2022-09-09T13:41:08;19.40;99.90
38582;DHT22;24349;53.720;10.014;2022-09-09T13:43:43;19.30;99.90
38582;DHT22;24349;53.720;10.014;2022-09-09T13:46:41;19.20;99.90
38582;DHT22;24349;53.720;10.014;2022-09-09T13:51:46;18.80;99.90
38582;DHT22;24349;53.720;10.014;2022-09-09T13:54:15;18.60;99.90
38582;DHT22;24349;53.720;10.014;2022-09-09T13:56:42;18.30;99.90
38582;DHT22;24349;53.720;10.014;2022-09-09T13:59:14;18.00;99.90
38582;DHT22;24349;53.720;10.014;2022-09-09T14:01:40;18.00;99.90
38582;DHT22;24349;53.720;10.014;2022-09-09T14:04:07;17.50;99.90
38582;DHT22;24349;53.720;10.014;2022-09-09T14:06:34;17.30;99.90
38582;DHT22;24349;53.720;10.014;2022-09-09T14:09:02;17.20;99.90
38582;DHT22;24349;53.720;10.014;2022-09-09T14:11:28;17.10;99.90
38582;DHT22;24349;53.720;10.014;2022-09-09T14:13:54;17.10;99.90
38582;DHT22;24349;53.720;10.014;2022-09-09T14:16:19;17.10;99.90
38582;DHT22;24349;53.720;10.014;2022-09-09T14:18:47;17.00;99.90
38582;DHT22;24349;53.720;10.014;2022-09-09T14:21:13;17.00;99.90
38582;DHT22;24349;53.720;10.014;2022-09-09T14:23:40;17.00;99.90
38582;DHT22;24349;53.720;10.014;2022-09-09T14:26:06;17.10;99.90
38582;DHT22;24349;53.720;10.014;2022-09-09T14:28:32;17.00;99.90
38582;DHT22;24349;53.720;10.014;2022-09-09T14:31:03;17.10;99.90
38582;DHT22;24349;53.720;10.014;2022-09-09T14:33:29;17.10;99.90
38582;DHT22;24349;53.720;10.014;2022-09-09T14:35:57;17.10;99.90
38582;DHT22;24349;53.720;10.014;2022-09-09T14:38:22;17.20;99.90
38582;DHT22;24349;53.720;10.014;2022-09-09T14:40:48;17.20;99.90
38582;DHT22;24349;53.720;10.014;2022-09-09T14:43:14;17.30;99.90
38582;DHT22;24349;53.720;10.014;2022-09-09T14:45:40;17.20;99.90
38582;DHT22;24349;53.720;10.014;2022-09-09T14:48:05;17.30;99.90
38582;DHT22;24349;53.720;10.014;2022-09-09T14:50:31;17.40;99.90
38582;DHT22;24349;53.720;10.014;2022-09-09T14:52:57;17.40;99.90
38582;DHT22;24349;53.720;10.014;2022-09-09T14:55:22;17.40;99.90
38582;DHT22;24349;53.720;10.014;2022-09-09T14:57:48;17.40;99.90
38582;DHT22;24349;53.720;10.014;2022-09-09T15:00:14;17.50;99.90
38582;DHT22;24349;53.720;10.014;2022-09-09T15:02:41;17.50;99.90
38582;DHT22;24349;53.720;10.014;2022-09-09T15:05:07;17.40;99.90
38582;DHT22;24349;53.720;10.014;2022-09-09T15:07:33;17.40;99.90
38582;DHT22;24349;53.720;10.014;2022-09-09T15:09:59;17.40;99.90
38582;DHT22;24349;53.720;10.014;2022-09-09T15:12:25;17.40;99.90
38582;DHT22;24349;53.720;10.014;2022-09-09T15:14:50;17.50;99.90
38582;DHT22;24349;53.720;10.014;2022-09-09T15:17:16;17.50;99.90
38582;DHT22;24349;53.720;10.014;2022-09-09T15:19:42;17.50;99.90
38582;DHT22;24349;53.720;10.014;2022-09-09T15:22:08;17.50;99.90
38582;DHT22;24349;53.720;10.014;2022-09-09T15:24:34;17.50;99.90
38582;DHT22;24349;53.720;10.014;2022-09-09T15:27:01;17.50;99.90
38582;DHT22;24349;53.720;10.014;2022-09-09T15:29:27;17.50;99.90
38582;DHT22;24349;53.720;10.014;2022-09-09T15:31:54;17.60;99.90
38582;DHT22;24349;53.720;10.014;2022-09-09T15:34:20;17.60;99.90
38582;DHT22;24349;53.720;10.014;2022-09-09T15:36:46;17.60;99.90
38582;DHT22;24349;53.720;10.014;2022-09-09T15:39:14;17.60;99.90
38582;DHT22;24349;53.720;10.014;2022-09-09T15:41:42;17.70;99.90
38582;DHT22;24349;53.720;10.014;2022-09-09T15:44:09;17.70;99.90
38582;DHT22;24349;53.720;10.014;2022-09-09T15:46:48;17.80;99.90
38582;DHT22;24349;53.720;10.014;2022-09-09T15:51:45;17.90;99.90
38582;DHT22;24349;53.720;10.014;2022-09-09T15:54:16;17.90;99.90
38582;DHT22;24349;53.720;10.014;2022-09-09T15:56:43;17.90;99.90
38582;DHT22;24349;53.720;10.014;2022-09-09T15:59:09;18.00;99.90
38582;DHT22;24349;53.720;10.014;2022-09-09T16:01:35;18.10;99.90
38582;DHT22;24349;53.720;10.014;2022-09-09T16:04:01;18.20;99.90
38582;DHT22;24349;53.720;10.014;2022-09-09T16:06:28;18.40;99.90
38582;DHT22;24349;53.720;10.014;2022-09-09T16:08:55;18.50;99.90
38582;DHT22;24349;53.720;10.014;2022-09-09T16:11:22;18.30;99.90
38582;DHT22;24349;53.720;10.014;2022-09-09T16:13:51;18.30;99.90
38582;DHT22;24349;53.720;10.014;2022-09-09T16:16:19;18.40;99.90
38582;DHT22;24349;53.720;10.014;2022-09-09T16:18:48;18.60;99.90
38582;DHT22;24349;53.720;10.014;2022-09-09T16:21:23;18.60;99.90
38582;DHT22;24349;53.720;10.014;2022-09-09T16:23:51;18.80;99.90
38582;DHT22;24349;53.720;10.014;2022-09-09T16:26:19;18.70;99.90
38582;DHT22;24349;53.720;10.014;2022-09-09T16:28:45;18.70;99.90
38582;DHT22;24349;53.720;10.014;2022-09-09T16:31:14;18.90;99.90
38582;DHT22;24349;53.720;10.014;2022-09-09T16:33:40;18.90;99.90
38582;DHT22;24349;53.720;10.014;2022-09-09T16:36:08;18.70;99.90
38582;DHT22;24349;53.720;10.014;2022-09-09T16:38:35;18.50;99.90
38582;DHT22;24349;53.720;10.014;2022-09-09T16:41:03;18.50;99.90
38582;DHT22;24349;53.720;10.014;2022-09-09T16:43:30;18.20;99.90
38582;DHT22;24349;53.720;10.014;2022-09-09T16:45:56;18.20;99.90
38582;DHT22;24349;53.720;10.014;2022-09-09T16:48:21;18.20;99.90
38582;DHT22;24349;53.720;10.014;2022-09-09T16:50:47;18.20;99.90
38582;DHT22;24349;53.720;10.014;2022-09-09T16:53:13;18.20;99.90
38582;DHT22;24349;53.720;10.014;2022-09-09T16:55:41;18.00;99.90
38582;DHT22;24349;53.720;10.014;2022-09-09T16:58:12;17.90;99.90
38582;DHT22;24349;53.720;10.014;2022-09-09T17:00:38;17.90;99.90
38582;DHT22;24349;53.720;10.014;2022-09-09T17:03:04;17.90;99.90
38582;DHT22;24349;53.720;10.014;2022-09-09T17:05:30;18.00;99.90
38582;DHT22;24349;53.720;10.014;2022-09-09T17:07:57;18.00;99.90
38582;DHT22;24349;53.720;10.014;2022-09-09T17:10:25;18.00;99.90
38582;DHT22;24349;53.720;10.014;2022-09-09T17:12:51;17.80;99.90
38582;DHT22;24349;53.720;10.014;2022-09-09T17:15:17;17.80;99.90
38582;DHT22;24349;53.720;10.014;2022-09-09T17:17:43;17.80;99.90
38582;DHT22;24349;53.720;10.014;2022-09-09T17:20:10;17.80;99.90
38582;DHT22;24349;53.720;10.014;2022-09-09T17:22:36;17.70;99.90
38582;DHT22;24349;53.720;10.014;2022-09-09T17:25:02;17.60;99.90
38582;DHT22;24349;53.720;10.014;2022-09-09T17:27:29;17.70;99.90
38582;DHT22;24349;53.720;10.014;2022-09-09T17:29:57;17.70;99.90
38582;DHT22;24349;53.720;10.014;2022-09-09T17:32:22;17.70;99.90
38582;DHT22;24349;53.720;10.014;2022-09-09T17:34:48;17.60;99.90
38582;DHT22;24349;53.720;10.014;2022-09-09T17:37:14;17.50;99.90
38582;DHT22;24349;53.720;10.014;2022-09-09T17:39:39;17.50;99.90
38582;DHT22;24349;53.720;10.014;2022-09-09T17:42:05;17.50;99.90
38582;DHT22;24349;53.720;10.014;2022-09-09T17:44:33;17.40;99.90
38582;DHT22;24349;53.720;10.014;2022-09-09T17:46:58;17.30;99.90
38582;DHT22;24349;53.720;10.014;2022-09-09T17:49:24;17.20;99.90
38582;DHT22;24349;53.720;10.014;2022-09-09T17:51:50;17.20;99.90